sensor_id;sensor_type;location;lat;lon;timestamp;P1;durP1;ratioP1;P2;durP2;ratioP2
4430;SDS011;2228;48.140;11.488;2023-03-31T00:39:38;12.27;;;7.43;;
4430;SDS011;2228;48.140;11.488;2023-03-31T00:42:05;12.13;;;7.20;;
4430;SDS011;2228;48.140;11.488;2023-03-31T00:44:34;14.30;;;8.10;;
4430;SDS011;2228;48.140;11.488;2023-03-31T00:47:05;15.40;;;7.90;;
4430;SDS011;2228;48.140;11.488;2023-03-31T00:49:38;15.07;;;8.38;;
4430;SDS011;2228;48.140;11.488;2023-03-31T00:52:09;13.48;;;7.90;;
4430;SDS011;2228;48.140;11.488;2023-03-31T00:54:44;15.30;;;7.80;;
4430;SDS011;2228;48.140;11.488;2023-03-31T00:57:14;13.07;;;7.65;;
4430;SDS011;2228;48.140;11.488;2023-03-31T00:59:42;15.38;;;8.00;;
4430;SDS011;2228;48.140;11.488;2023-03-31T01:02:13;14.77;;;7.45;;
4430;SDS011;2228;48.140;11.488;2023-03-31T01:04:42;16.15;;;7.18;;
4430;SDS011;2228;48.140;11.488;2023-03-31T01:07:15;11.47;;;6.70;;
4430;SDS011;2228;48.140;11.488;2023-03-31T01:09:48;10.02;;;6.97;;
4430;SDS011;2228;48.140;11.488;2023-03-31T01:12:18;13.37;;;7.37;;
4430;SDS011;2228;48.140;11.488;2023-03-31T01:14:47;14.32;;;7.03;;
4430;SDS011;2228;48.140;11.488;2023-03-31T01:17:16;10.88;;;6.45;;
4430;SDS011;2228;48.140;11.488;2023-03-31T01:19:50;16.48;;;7.47;;
4430;SDS011;2228;48.140;11.488;2023-03-31T01:22:38;13.88;;;7.05;;
4430;SDS011;2228;48.140;11.488;2023-03-31T01:28:31;10.20;;;6.10;;
4430;SDS011;2228;48.140;11.488;2023-03-31T01:31:07;10.37;;;6.30;;
4430;SDS011;2228;48.140;11.488;2023-03-31T01:37:27;8.03;;;5.50;;
4430;SDS011;2228;48.140;11.488;2023-03-31T02:01:45;12.52;;;5.93;;
4430;SDS011;2228;48.140;11.488;2023-03-31T02:04:17;11.50;;;6.20;;
4430;SDS011;2228;48.140;11.488;2023-03-31T02:06:50;16.15;;;5.20;;
4430;SDS011;2228;48.140;11.488;2023-03-31T02:09:21;16.63;;;6.18;;
4430;SDS011;2228;48.140;11.488;2023-03-31T02:11:52;9.65;;;5.50;;
4430;SDS011;2228;48.140;11.488;2023-03-31T02:14:22;11.18;;;5.30;;
4430;SDS011;2228;48.140;11.488;2023-03-31T02:16:55;10.23;;;5.43;;
4430;SDS011;2228;48.140;11.488;2023-03-31T02:19:27;10.70;;;5.72;;
4430;SDS011;2228;48.140;11.488;2023-03-31T02:21:57;11.27;;;5.30;;
4430;SDS011;2228;48.140;11.488;2023-03-31T02:24:27;14.55;;;5.28;;
4430;SDS011;2228;48.140;11.488;2023-03-31T02:26:58;9.53;;;5.30;;
4430;SDS011;2228;48.140;11.488;2023-03-31T02:29:30;9.43;;;5.55;;
4430;SDS011;2228;48.140;11.488;2023-03-31T02:31:59;9.82;;;5.65;;
4430;SDS011;2228;48.140;11.488;2023-03-31T02:34:32;13.98;;;5.70;;
4430;SDS011;2228;48.140;11.488;2023-03-31T02:37:00;8.38;;;5.00;;
4430;SDS011;2228;48.140;11.488;2023-03-31T02:39:28;10.27;;;5.10;;
4430;SDS011;2228;48.140;11.488;2023-03-31T02:41:58;8.75;;;5.40;;
4430;SDS011;2228;48.140;11.488;2023-03-31T02:44:31;10.13;;;5.20;;
4430;SDS011;2228;48.140;11.488;2023-03-31T02:47:00;7.70;;;4.80;;
4430;SDS011;2228;48.140;11.488;2023-03-31T02:49:29;16.60;;;5.95;;
4430;SDS011;2228;48.140;11.488;2023-03-31T02:54:59;9.35;;;5.20;;
4430;SDS011;2228;48.140;11.488;2023-03-31T02:58:07;8.48;;;5.35;;
4430;SDS011;2228;48.140;11.488;2023-03-31T03:06:38;10.35;;;4.93;;
4430;SDS011;2228;48.140;11.488;2023-03-31T03:09:22;10.32;;;5.32;;
4430;SDS011;2228;48.140;11.488;2023-03-31T03:12:02;9.75;;;5.70;;
4430;SDS011;2228;48.140;11.488;2023-03-31T03:14:35;15.52;;;6.43;;
4430;SDS011;2228;48.140;11.488;2023-03-31T03:17:12;11.25;;;5.90;;
4430;SDS011;2228;48.140;11.488;2023-03-31T03:19:49;11.93;;;5.83;;
4430;SDS011;2228;48.140;11.488;2023-03-31T03:22:19;9.30;;;6.20;;
4430;SDS011;2228;48.140;11.488;2023-03-31T03:24:46;12.75;;;6.68;;
4430;SDS011;2228;48.140;11.488;2023-03-31T03:27:13;11.75;;;6.30;;
4430;SDS011;2228;48.140;11.488;2023-03-31T03:29:40;11.85;;;6.70;;
4430;SDS011;2228;48.140;11.488;2023-03-31T03:32:08;14.45;;;6.20;;
4430;SDS011;2228;48.140;11.488;2023-03-31T03:34:35;13.35;;;6.70;;
4430;SDS011;2228;48.140;11.488;2023-03-31T03:37:02;12.20;;;6.75;;
4430;SDS011;2228;48.140;11.488;2023-03-31T03:39:31;14.10;;;6.85;;
4430;SDS011;2228;48.140;11.488;2023-03-31T03:41:58;15.48;;;7.45;;
4430;SDS011;2228;48.140;11.488;2023-03-31T03:44:25;11.85;;;7.60;;
4430;SDS011;2228;48.140;11.488;2023-03-31T03:46:51;17.17;;;7.60;;
4430;SDS011;2228;48.140;11.488;2023-03-31T03:49:19;15.40;;;8.38;;
4430;SDS011;2228;48.140;11.488;2023-03-31T03:51:46;17.83;;;9.48;;
4430;SDS011;2228;48.140;11.488;2023-03-31T03:54:14;16.02;;;8.13;;
4430;SDS011;2228;48.140;11.488;2023-03-31T03:56:43;16.92;;;9.05;;
4430;SDS011;2228;48.140;11.488;2023-03-31T03:59:13;13.70;;;8.97;;
4430;SDS011;2228;48.140;11.488;2023-03-31T04:01:42;17.20;;;9.00;;
4430;SDS011;2228;48.140;11.488;2023-03-31T04:04:09;18.20;;;9.35;;
4430;SDS011;2228;48.140;11.488;2023-03-31T04:06:36;21.42;;;9.98;;
4430;SDS011;2228;48.140;11.488;2023-03-31T04:09:03;14.23;;;9.18;;
4430;SDS011;2228;48.140;11.488;2023-03-31T04:11:30;17.55;;;9.25;;
4430;SDS011;2228;48.140;11.488;2023-03-31T04:13:59;14.50;;;8.60;;
4430;SDS011;2228;48.140;11.488;2023-03-31T04:16:26;18.70;;;8.63;;
4430;SDS011;2228;48.140;11.488;2023-03-31T04:18:53;16.33;;;9.20;;
4430;SDS011;2228;48.140;11.488;2023-03-31T04:21:23;21.13;;;9.43;;
4430;SDS011;2228;48.140;11.488;2023-03-31T04:23:51;18.33;;;9.38;;
4430;SDS011;2228;48.140;11.488;2023-03-31T04:26:25;16.33;;;9.10;;
4430;SDS011;2228;48.140;11.488;2023-03-31T04:29:05;15.38;;;8.73;;
4430;SDS011;2228;48.140;11.488;2023-03-31T04:31:32;14.90;;;9.07;;
4430;SDS011;2228;48.140;11.488;2023-03-31T04:34:02;18.15;;;8.50;;
4430;SDS011;2228;48.140;11.488;2023-03-31T04:36:31;12.73;;;8.40;;
4430;SDS011;2228;48.140;11.488;2023-03-31T04:38:58;15.00;;;8.60;;
4430;SDS011;2228;48.140;11.488;2023-03-31T04:41:25;12.07;;;8.23;;
4430;SDS011;2228;48.140;11.488;2023-03-31T04:43:52;16.10;;;9.60;;
4430;SDS011;2228;48.140;11.488;2023-03-31T04:46:21;16.95;;;8.43;;
4430;SDS011;2228;48.140;11.488;2023-03-31T04:48:48;15.77;;;9.18;;
4430;SDS011;2228;48.140;11.488;2023-03-31T04:51:15;12.75;;;7.88;;
4430;SDS011;2228;48.140;11.488;2023-03-31T04:53:44;15.57;;;8.73;;
4430;SDS011;2228;48.140;11.488;2023-03-31T04:56:12;14.43;;;9.23;;
4430;SDS011;2228;48.140;11.488;2023-03-31T04:58:40;17.80;;;10.82;;
4430;SDS011;2228;48.140;11.488;2023-03-31T05:01:08;17.60;;;9.80;;
4430;SDS011;2228;48.140;11.488;2023-03-31T05:03:40;22.00;;;11.20;;
4430;SDS011;2228;48.140;11.488;2023-03-31T05:06:08;18.85;;;11.35;;
4430;SDS011;2228;48.140;11.488;2023-03-31T05:08:36;23.63;;;11.30;;
4430;SDS011;2228;48.140;11.488;2023-03-31T05:11:04;22.52;;;11.80;;
4430;SDS011;2228;48.140;11.488;2023-03-31T05:13:32;26.40;;;12.32;;
4430;SDS011;2228;48.140;11.488;2023-03-31T05:16:04;19.70;;;11.88;;
4430;SDS011;2228;48.140;11.488;2023-03-31T05:18:33;25.43;;;11.90;;
4430;SDS011;2228;48.140;11.488;2023-03-31T05:21:10;27.67;;;11.95;;
4430;SDS011;2228;48.140;11.488;2023-03-31T05:23:38;16.08;;;11.25;;
4430;SDS011;2228;48.140;11.488;2023-03-31T05:26:06;21.95;;;11.13;;
4430;SDS011;2228;48.140;11.488;2023-03-31T05:28:33;22.90;;;10.37;;
4430;SDS011;2228;48.140;11.488;2023-03-31T05:31:01;21.50;;;10.43;;
4430;SDS011;2228;48.140;11.488;2023-03-31T05:33:29;18.27;;;10.45;;
4430;SDS011;2228;48.140;11.488;2023-03-31T05:35:57;23.23;;;11.70;;
4430;SDS011;2228;48.140;11.488;2023-03-31T05:38:27;20.38;;;11.20;;
4430;SDS011;2228;48.140;11.488;2023-03-31T05:40:55;24.63;;;13.02;;
4430;SDS011;2228;48.140;11.488;2023-03-31T05:43:22;19.33;;;11.20;;
4430;SDS011;2228;48.140;11.488;2023-03-31T05:45:50;22.15;;;12.82;;
4430;SDS011;2228;48.140;11.488;2023-03-31T05:48:16;25.20;;;13.05;;
4430;SDS011;2228;48.140;11.488;2023-03-31T05:50:44;26.95;;;12.95;;
4430;SDS011;2228;48.140;11.488;2023-03-31T05:53:10;18.95;;;12.07;;
4430;SDS011;2228;48.140;11.488;2023-03-31T05:55:39;19.80;;;11.52;;
4430;SDS011;2228;48.140;11.488;2023-03-31T05:58:06;23.60;;;11.82;;
4430;SDS011;2228;48.140;11.488;2023-03-31T06:00:33;20.63;;;12.63;;
4430;SDS011;2228;48.140;11.488;2023-03-31T06:03:02;19.35;;;11.95;;
4430;SDS011;2228;48.140;11.488;2023-03-31T06:05:32;17.53;;;11.67;;
4430;SDS011;2228;48.140;11.488;2023-03-31T06:07:59;15.20;;;10.38;;
4430;SDS011;2228;48.140;11.488;2023-03-31T06:10:26;16.55;;;10.52;;
4430;SDS011;2228;48.140;11.488;2023-03-31T06:12:55;14.85;;;10.00;;
4430;SDS011;2228;48.140;11.488;2023-03-31T06:15:22;17.73;;;9.23;;
4430;SDS011;2228;48.140;11.488;2023-03-31T06:17:49;14.65;;;9.27;;
4430;SDS011;2228;48.140;11.488;2023-03-31T06:20:16;18.20;;;9.43;;
4430;SDS011;2228;48.140;11.488;2023-03-31T06:22:43;13.85;;;8.60;;
4430;SDS011;2228;48.140;11.488;2023-03-31T06:25:10;15.25;;;9.40;;
4430;SDS011;2228;48.140;11.488;2023-03-31T06:27:37;15.73;;;8.45;;
4430;SDS011;2228;48.140;11.488;2023-03-31T06:30:07;13.48;;;8.90;;
4430;SDS011;2228;48.140;11.488;2023-03-31T06:32:34;13.75;;;8.02;;
4430;SDS011;2228;48.140;11.488;2023-03-31T06:35:01;12.95;;;7.85;;
4430;SDS011;2228;48.140;11.488;2023-03-31T06:37:28;20.45;;;8.95;;
4430;SDS011;2228;48.140;11.488;2023-03-31T06:39:55;15.57;;;8.43;;
4430;SDS011;2228;48.140;11.488;2023-03-31T06:42:22;18.10;;;8.75;;
4430;SDS011;2228;48.140;11.488;2023-03-31T06:44:50;13.70;;;9.05;;
4430;SDS011;2228;48.140;11.488;2023-03-31T06:47:18;14.43;;;8.45;;
4430;SDS011;2228;48.140;11.488;2023-03-31T06:49:45;14.98;;;8.20;;
4430;SDS011;2228;48.140;11.488;2023-03-31T06:52:12;15.48;;;8.40;;
4430;SDS011;2228;48.140;11.488;2023-03-31T06:54:39;15.30;;;8.07;;
4430;SDS011;2228;48.140;11.488;2023-03-31T06:57:06;14.25;;;8.10;;
4430;SDS011;2228;48.140;11.488;2023-03-31T06:59:47;16.65;;;8.13;;
4430;SDS011;2228;48.140;11.488;2023-03-31T07:02:15;22.25;;;9.02;;
4430;SDS011;2228;48.140;11.488;2023-03-31T07:04:44;16.20;;;8.00;;
4430;SDS011;2228;48.140;11.488;2023-03-31T07:07:11;12.95;;;7.78;;
4430;SDS011;2228;48.140;11.488;2023-03-31T07:09:38;12.13;;;7.78;;
4430;SDS011;2228;48.140;11.488;2023-03-31T07:12:05;15.75;;;8.32;;
4430;SDS011;2228;48.140;11.488;2023-03-31T07:14:34;14.43;;;8.15;;
4430;SDS011;2228;48.140;11.488;2023-03-31T07:17:01;18.40;;;8.77;;
4430;SDS011;2228;48.140;11.488;2023-03-31T07:19:28;17.63;;;8.93;;
4430;SDS011;2228;48.140;11.488;2023-03-31T07:21:57;14.52;;;8.13;;
4430;SDS011;2228;48.140;11.488;2023-03-31T07:24:24;17.10;;;9.40;;
4430;SDS011;2228;48.140;11.488;2023-03-31T07:26:51;20.60;;;8.43;;
4430;SDS011;2228;48.140;11.488;2023-03-31T07:29:18;16.27;;;9.25;;
4430;SDS011;2228;48.140;11.488;2023-03-31T07:31:45;18.77;;;10.05;;
4430;SDS011;2228;48.140;11.488;2023-03-31T07:34:12;18.42;;;10.52;;
4430;SDS011;2228;48.140;11.488;2023-03-31T07:36:40;18.23;;;10.38;;
4430;SDS011;2228;48.140;11.488;2023-03-31T07:39:09;21.92;;;11.18;;
4430;SDS011;2228;48.140;11.488;2023-03-31T07:41:35;21.70;;;11.00;;
4430;SDS011;2228;48.140;11.488;2023-03-31T07:44:03;14.32;;;9.52;;
4430;SDS011;2228;48.140;11.488;2023-03-31T07:46:30;14.45;;;9.38;;
4430;SDS011;2228;48.140;11.488;2023-03-31T07:48:57;21.05;;;10.40;;
4430;SDS011;2228;48.140;11.488;2023-03-31T07:51:27;17.27;;;10.10;;
4430;SDS011;2228;48.140;11.488;2023-03-31T07:53:54;18.00;;;10.50;;
4430;SDS011;2228;48.140;11.488;2023-03-31T07:56:26;21.70;;;10.80;;
4430;SDS011;2228;48.140;11.488;2023-03-31T07:58:53;22.27;;;12.30;;
4430;SDS011;2228;48.140;11.488;2023-03-31T08:01:20;20.30;;;11.82;;
4430;SDS011;2228;48.140;11.488;2023-03-31T08:03:50;18.60;;;10.20;;
4430;SDS011;2228;48.140;11.488;2023-03-31T08:06:19;14.30;;;9.30;;
4430;SDS011;2228;48.140;11.488;2023-03-31T08:08:49;16.53;;;9.60;;
4430;SDS011;2228;48.140;11.488;2023-03-31T08:11:16;15.55;;;9.50;;
4430;SDS011;2228;48.140;11.488;2023-03-31T08:17:52;18.85;;;9.70;;
4430;SDS011;2228;48.140;11.488;2023-03-31T08:20:31;21.27;;;10.02;;
4430;SDS011;2228;48.140;11.488;2023-03-31T08:23:27;19.40;;;12.35;;
4430;SDS011;2228;48.140;11.488;2023-03-31T08:26:16;28.30;;;12.27;;
4430;SDS011;2228;48.140;11.488;2023-03-31T08:28:50;17.63;;;10.93;;
4430;SDS011;2228;48.140;11.488;2023-03-31T08:32:14;25.35;;;10.85;;
4430;SDS011;2228;48.140;11.488;2023-03-31T08:34:48;22.50;;;10.38;;
4430;SDS011;2228;48.140;11.488;2023-03-31T08:37:19;14.75;;;10.70;;
4430;SDS011;2228;48.140;11.488;2023-03-31T08:39:46;14.95;;;7.88;;
4430;SDS011;2228;48.140;11.488;2023-03-31T08:42:14;16.48;;;7.88;;
4430;SDS011;2228;48.140;11.488;2023-03-31T08:44:43;18.87;;;8.70;;
4430;SDS011;2228;48.140;11.488;2023-03-31T08:47:16;13.02;;;6.80;;
4430;SDS011;2228;48.140;11.488;2023-03-31T08:49:46;12.95;;;6.15;;
4430;SDS011;2228;48.140;11.488;2023-03-31T08:52:19;8.55;;;5.18;;
4430;SDS011;2228;48.140;11.488;2023-03-31T08:54:51;5.93;;;3.80;;
4430;SDS011;2228;48.140;11.488;2023-03-31T08:57:23;5.65;;;4.13;;
4430;SDS011;2228;48.140;11.488;2023-03-31T08:59:54;9.13;;;3.83;;
4430;SDS011;2228;48.140;11.488;2023-03-31T09:02:25;9.85;;;4.10;;
4430;SDS011;2228;48.140;11.488;2023-03-31T09:05:13;11.70;;;4.00;;
4430;SDS011;2228;48.140;11.488;2023-03-31T09:08:12;9.05;;;3.97;;
4430;SDS011;2228;48.140;11.488;2023-03-31T09:10:50;6.93;;;3.53;;
4430;SDS011;2228;48.140;11.488;2023-03-31T09:13:31;10.07;;;3.80;;
4430;SDS011;2228;48.140;11.488;2023-03-31T09:16:19;8.32;;;3.55;;
4430;SDS011;2228;48.140;11.488;2023-03-31T09:18:51;5.72;;;3.90;;
4430;SDS011;2228;48.140;11.488;2023-03-31T09:21:31;5.95;;;3.70;;
4430;SDS011;2228;48.140;11.488;2023-03-31T09:24:02;6.18;;;3.30;;
4430;SDS011;2228;48.140;11.488;2023-03-31T09:26:35;6.90;;;3.10;;
4430;SDS011;2228;48.140;11.488;2023-03-31T09:29:09;7.35;;;3.40;;
4430;SDS011;2228;48.140;11.488;2023-03-31T09:31:43;5.50;;;2.67;;
4430;SDS011;2228;48.140;11.488;2023-03-31T09:34:12;6.00;;;2.50;;
4430;SDS011;2228;48.140;11.488;2023-03-31T09:36:43;3.80;;;2.05;;
4430;SDS011;2228;48.140;11.488;2023-03-31T09:39:11;3.65;;;2.35;;
4430;SDS011;2228;48.140;11.488;2023-03-31T09:41:41;4.63;;;2.40;;
4430;SDS011;2228;48.140;11.488;2023-03-31T09:44:18;3.10;;;2.00;;
4430;SDS011;2228;48.140;11.488;2023-03-31T09:46:50;4.03;;;2.05;;
4430;SDS011;2228;48.140;11.488;2023-03-31T09:49:18;3.40;;;1.60;;
4430;SDS011;2228;48.140;11.488;2023-03-31T09:51:51;5.15;;;2.60;;
4430;SDS011;2228;48.140;11.488;2023-03-31T09:54:27;3.03;;;1.77;;
4430;SDS011;2228;48.140;11.488;2023-03-31T09:57:01;4.20;;;1.80;;
4430;SDS011;2228;48.140;11.488;2023-03-31T09:59:29;5.87;;;2.00;;
4430;SDS011;2228;48.140;11.488;2023-03-31T10:01:59;2.50;;;1.73;;
4430;SDS011;2228;48.140;11.488;2023-03-31T10:04:29;2.63;;;1.80;;
4430;SDS011;2228;48.140;11.488;2023-03-31T10:06:59;3.25;;;2.22;;
4430;SDS011;2228;48.140;11.488;2023-03-31T10:09:29;4.10;;;2.15;;
4430;SDS011;2228;48.140;11.488;2023-03-31T10:11:58;3.25;;;1.90;;
4430;SDS011;2228;48.140;11.488;2023-03-31T10:14:37;4.90;;;2.10;;
4430;SDS011;2228;48.140;11.488;2023-03-31T10:17:12;3.85;;;1.98;;
4430;SDS011;2228;48.140;11.488;2023-03-31T10:19:46;5.07;;;2.33;;
4430;SDS011;2228;48.140;11.488;2023-03-31T10:22:25;4.83;;;2.60;;
4430;SDS011;2228;48.140;11.488;2023-03-31T10:24:54;5.50;;;2.03;;
4430;SDS011;2228;48.140;11.488;2023-03-31T10:27:33;5.03;;;2.38;;
4430;SDS011;2228;48.140;11.488;2023-03-31T10:30:02;4.78;;;2.30;;
4430;SDS011;2228;48.140;11.488;2023-03-31T10:32:37;3.10;;;2.10;;
4430;SDS011;2228;48.140;11.488;2023-03-31T10:35:09;4.93;;;2.40;;
4430;SDS011;2228;48.140;11.488;2023-03-31T10:37:54;5.53;;;2.33;;
4430;SDS011;2228;48.140;11.488;2023-03-31T12:45:28;2.92;;;1.30;;
4430;SDS011;2228;48.140;11.488;2023-03-31T12:48:06;3.45;;;1.60;;
4430;SDS011;2228;48.140;11.488;2023-03-31T12:50:55;3.55;;;1.50;;
4430;SDS011;2228;48.140;11.488;2023-03-31T12:53:42;2.90;;;1.52;;
4430;SDS011;2228;48.140;11.488;2023-03-31T12:56:17;5.10;;;1.60;;
4430;SDS011;2228;48.140;11.488;2023-03-31T13:13:22;3.08;;;1.10;;
4430;SDS011;2228;48.140;11.488;2023-03-31T13:15:50;2.73;;;1.00;;
4430;SDS011;2228;48.140;11.488;2023-03-31T13:18:22;4.63;;;0.90;;
4430;SDS011;2228;48.140;11.488;2023-03-31T13:20:56;4.10;;;1.00;;
4430;SDS011;2228;48.140;11.488;2023-03-31T13:23:24;2.30;;;1.23;;
4430;SDS011;2228;48.140;11.488;2023-03-31T13:25:54;3.33;;;1.20;;
4430;SDS011;2228;48.140;11.488;2023-03-31T13:28:30;3.10;;;1.10;;
4430;SDS011;2228;48.140;11.488;2023-03-31T13:31:04;1.60;;;0.90;;
4430;SDS011;2228;48.140;11.488;2023-03-31T13:33:33;2.22;;;1.00;;
4430;SDS011;2228;48.140;11.488;2023-03-31T13:36:52;3.15;;;1.10;;
4430;SDS011;2228;48.140;11.488;2023-03-31T13:48:27;4.80;;;0.90;;
4430;SDS011;2228;48.140;11.488;2023-03-31T13:51:23;2.20;;;0.80;;
4430;SDS011;2228;48.140;11.488;2023-03-31T13:56:54;3.13;;;1.00;;
4430;SDS011;2228;48.140;11.488;2023-03-31T13:59:53;1.63;;;0.80;;
4430;SDS011;2228;48.140;11.488;2023-03-31T14:02:43;2.92;;;0.95;;
4430;SDS011;2228;48.140;11.488;2023-03-31T14:05:33;4.40;;;1.00;;
4430;SDS011;2228;48.140;11.488;2023-03-31T14:08:04;4.22;;;1.40;;
4430;SDS011;2228;48.140;11.488;2023-03-31T14:10:37;5.50;;;1.60;;
4430;SDS011;2228;48.140;11.488;2023-03-31T14:13:18;6.30;;;1.10;;
4430;SDS011;2228;48.140;11.488;2023-03-31T14:15:51;2.17;;;1.00;;
4430;SDS011;2228;48.140;11.488;2023-03-31T14:18:22;2.67;;;1.00;;
4430;SDS011;2228;48.140;11.488;2023-03-31T14:21:00;1.67;;;1.17;;
4430;SDS011;2228;48.140;11.488;2023-03-31T14:23:40;2.85;;;1.10;;
4430;SDS011;2228;48.140;11.488;2023-03-31T14:26:17;2.38;;;1.00;;
4430;SDS011;2228;48.140;11.488;2023-03-31T14:28:58;6.05;;;1.33;;
4430;SDS011;2228;48.140;11.488;2023-03-31T14:31:39;3.58;;;1.45;;
4430;SDS011;2228;48.140;11.488;2023-03-31T14:34:14;4.00;;;1.30;;
4430;SDS011;2228;48.140;11.488;2023-03-31T14:36:57;3.30;;;1.50;;
4430;SDS011;2228;48.140;11.488;2023-03-31T14:39:27;4.15;;;1.23;;
4430;SDS011;2228;48.140;11.488;2023-03-31T14:41:57;2.80;;;0.80;;
4430;SDS011;2228;48.140;11.488;2023-03-31T14:44:27;1.83;;;0.88;;
4430;SDS011;2228;48.140;11.488;2023-03-31T14:46:56;2.50;;;0.80;;
4430;SDS011;2228;48.140;11.488;2023-03-31T14:49:24;3.40;;;0.80;;
4430;SDS011;2228;48.140;11.488;2023-03-31T14:51:59;3.10;;;1.00;;
4430;SDS011;2228;48.140;11.488;2023-03-31T14:54:27;2.50;;;0.70;;
4430;SDS011;2228;48.140;11.488;2023-03-31T14:57:01;1.40;;;0.70;;
4430;SDS011;2228;48.140;11.488;2023-03-31T14:59:30;1.80;;;0.70;;
4430;SDS011;2228;48.140;11.488;2023-03-31T15:02:01;0.98;;;0.70;;
4430;SDS011;2228;48.140;11.488;2023-03-31T15:04:38;1.77;;;0.70;;
4430;SDS011;2228;48.140;11.488;2023-03-31T15:07:09;2.80;;;0.90;;
4430;SDS011;2228;48.140;11.488;2023-03-31T15:09:36;2.42;;;0.80;;
4430;SDS011;2228;48.140;11.488;2023-03-31T15:12:05;4.50;;;1.00;;
4430;SDS011;2228;48.140;11.488;2023-03-31T15:14:39;2.47;;;1.00;;
4430;SDS011;2228;48.140;11.488;2023-03-31T15:17:16;1.67;;;0.70;;
4430;SDS011;2228;48.140;11.488;2023-03-31T15:19:45;3.25;;;0.80;;
4430;SDS011;2228;48.140;11.488;2023-03-31T15:22:13;1.77;;;1.02;;
4430;SDS011;2228;48.140;11.488;2023-03-31T15:24:43;2.78;;;0.82;;
4430;SDS011;2228;48.140;11.488;2023-03-31T15:27:12;3.47;;;0.80;;
4430;SDS011;2228;48.140;11.488;2023-03-31T15:29:43;5.30;;;1.45;;
4430;SDS011;2228;48.140;11.488;2023-03-31T15:32:13;3.10;;;1.00;;
4430;SDS011;2228;48.140;11.488;2023-03-31T15:34:46;2.33;;;1.00;;
4430;SDS011;2228;48.140;11.488;2023-03-31T15:37:18;3.60;;;1.30;;
4430;SDS011;2228;48.140;11.488;2023-03-31T15:39:47;2.92;;;1.05;;
4430;SDS011;2228;48.140;11.488;2023-03-31T15:42:15;5.65;;;1.20;;
4430;SDS011;2228;48.140;11.488;2023-03-31T15:44:44;4.00;;;1.10;;
4430;SDS011;2228;48.140;11.488;2023-03-31T15:47:15;2.17;;;1.02;;
4430;SDS011;2228;48.140;11.488;2023-03-31T15:49:49;4.90;;;1.20;;
4430;SDS011;2228;48.140;11.488;2023-03-31T15:52:21;3.13;;;0.87;;
4430;SDS011;2228;48.140;11.488;2023-03-31T15:54:52;1.60;;;0.88;;
4430;SDS011;2228;48.140;11.488;2023-03-31T15:57:20;1.90;;;0.80;;
4430;SDS011;2228;48.140;11.488;2023-03-31T15:59:56;3.47;;;1.10;;
4430;SDS011;2228;48.140;11.488;2023-03-31T16:02:24;2.27;;;1.00;;
4430;SDS011;2228;48.140;11.488;2023-03-31T16:05:01;2.20;;;1.07;;
4430;SDS011;2228;48.140;11.488;2023-03-31T16:07:28;2.83;;;1.02;;
4430;SDS011;2228;48.140;11.488;2023-03-31T16:09:59;2.45;;;1.08;;
4430;SDS011;2228;48.140;11.488;2023-03-31T16:12:29;4.20;;;0.80;;
4430;SDS011;2228;48.140;11.488;2023-03-31T16:15:02;2.33;;;0.90;;
4430;SDS011;2228;48.140;11.488;2023-03-31T16:17:35;4.40;;;1.10;;
4430;SDS011;2228;48.140;11.488;2023-03-31T16:20:09;2.63;;;1.23;;
4430;SDS011;2228;48.140;11.488;2023-03-31T16:22:43;3.70;;;1.10;;
4430;SDS011;2228;48.140;11.488;2023-03-31T16:25:14;4.10;;;1.20;;
4430;SDS011;2228;48.140;11.488;2023-03-31T16:27:46;2.17;;;1.00;;
4430;SDS011;2228;48.140;11.488;2023-03-31T16:30:17;3.08;;;1.20;;
4430;SDS011;2228;48.140;11.488;2023-03-31T16:32:58;4.90;;;1.40;;
4430;SDS011;2228;48.140;11.488;2023-03-31T16:35:32;6.43;;;1.25;;
4430;SDS011;2228;48.140;11.488;2023-03-31T16:38:03;3.95;;;1.70;;
4430;SDS011;2228;48.140;11.488;2023-03-31T16:40:38;4.32;;;1.60;;
4430;SDS011;2228;48.140;11.488;2023-03-31T16:43:11;4.13;;;1.48;;
4430;SDS011;2228;48.140;11.488;2023-03-31T16:45:42;2.47;;;1.20;;
4430;SDS011;2228;48.140;11.488;2023-03-31T16:48:12;3.35;;;1.50;;
4430;SDS011;2228;48.140;11.488;2023-03-31T16:50:42;2.40;;;1.20;;
4430;SDS011;2228;48.140;11.488;2023-03-31T16:53:10;7.47;;;1.30;;
4430;SDS011;2228;48.140;11.488;2023-03-31T16:55:38;3.80;;;1.00;;
4430;SDS011;2228;48.140;11.488;2023-03-31T16:58:06;1.20;;;0.80;;
4430;SDS011;2228;48.140;11.488;2023-03-31T17:00:34;2.10;;;0.70;;
4430;SDS011;2228;48.140;11.488;2023-03-31T17:03:01;1.40;;;0.70;;
4430;SDS011;2228;48.140;11.488;2023-03-31T17:05:29;2.85;;;0.70;;
4430;SDS011;2228;48.140;11.488;2023-03-31T17:07:59;1.90;;;0.88;;
4430;SDS011;2228;48.140;11.488;2023-03-31T17:10:26;2.50;;;0.82;;
4430;SDS011;2228;48.140;11.488;2023-03-31T17:12:53;3.78;;;1.00;;
4430;SDS011;2228;48.140;11.488;2023-03-31T17:15:20;2.80;;;0.80;;
4430;SDS011;2228;48.140;11.488;2023-03-31T17:17:47;0.98;;;0.75;;
4430;SDS011;2228;48.140;11.488;2023-03-31T17:20:15;3.50;;;0.70;;
4430;SDS011;2228;48.140;11.488;2023-03-31T17:22:42;1.30;;;0.77;;
4430;SDS011;2228;48.140;11.488;2023-03-31T17:25:12;1.73;;;0.70;;
4430;SDS011;2228;48.140;11.488;2023-03-31T17:27:40;11.95;;;3.42;;
4430;SDS011;2228;48.140;11.488;2023-03-31T17:30:08;6.90;;;2.70;;
4430;SDS011;2228;48.140;11.488;2023-03-31T17:32:36;1.20;;;0.70;;
4430;SDS011;2228;48.140;11.488;2023-03-31T17:35:03;1.85;;;0.80;;
4430;SDS011;2228;48.140;11.488;2023-03-31T17:37:31;1.73;;;0.88;;
4430;SDS011;2228;48.140;11.488;2023-03-31T17:39:58;1.85;;;0.90;;
4430;SDS011;2228;48.140;11.488;2023-03-31T17:42:27;1.65;;;0.88;;
4430;SDS011;2228;48.140;11.488;2023-03-31T17:44:56;2.60;;;0.90;;
4430;SDS011;2228;48.140;11.488;2023-03-31T17:47:23;2.00;;;0.77;;
4430;SDS011;2228;48.140;11.488;2023-03-31T17:49:51;1.23;;;0.70;;
4430;SDS011;2228;48.140;11.488;2023-03-31T17:52:22;1.93;;;0.80;;
4430;SDS011;2228;48.140;11.488;2023-03-31T17:54:50;1.00;;;0.80;;
4430;SDS011;2228;48.140;11.488;2023-03-31T17:57:22;1.43;;;0.60;;
4430;SDS011;2228;48.140;11.488;2023-03-31T17:59:51;2.00;;;0.80;;
4430;SDS011;2228;48.140;11.488;2023-03-31T18:02:40;1.95;;;0.70;;
4430;SDS011;2228;48.140;11.488;2023-03-31T18:05:08;1.80;;;0.70;;
4430;SDS011;2228;48.140;11.488;2023-03-31T18:07:40;2.83;;;0.80;;
4430;SDS011;2228;48.140;11.488;2023-03-31T18:10:47;2.30;;;1.00;;
4430;SDS011;2228;48.140;11.488;2023-03-31T18:13:18;2.70;;;0.90;;
4430;SDS011;2228;48.140;11.488;2023-03-31T18:15:49;1.67;;;0.68;;
4430;SDS011;2228;48.140;11.488;2023-03-31T18:18:32;2.40;;;0.80;;
4430;SDS011;2228;48.140;11.488;2023-03-31T18:21:05;2.22;;;0.80;;
4430;SDS011;2228;48.140;11.488;2023-03-31T18:23:34;4.20;;;1.10;;
4430;SDS011;2228;48.140;11.488;2023-03-31T18:32:33;3.40;;;0.90;;
4430;SDS011;2228;48.140;11.488;2023-03-31T19:12:57;1.30;;;0.80;;
4430;SDS011;2228;48.140;11.488;2023-03-31T19:15:25;1.75;;;0.70;;
4430;SDS011;2228;48.140;11.488;2023-03-31T19:17:53;1.55;;;0.90;;
4430;SDS011;2228;48.140;11.488;2023-03-31T19:20:26;3.30;;;0.90;;
4430;SDS011;2228;48.140;11.488;2023-03-31T19:22:53;6.85;;;1.65;;
4430;SDS011;2228;48.140;11.488;2023-03-31T19:25:21;2.17;;;0.82;;
4430;SDS011;2228;48.140;11.488;2023-03-31T19:27:48;1.40;;;0.70;;
4430;SDS011;2228;48.140;11.488;2023-03-31T19:30:18;2.15;;;0.80;;
4430;SDS011;2228;48.140;11.488;2023-03-31T19:32:47;1.02;;;0.70;;
4430;SDS011;2228;48.140;11.488;2023-03-31T19:35:15;2.90;;;0.90;;
4430;SDS011;2228;48.140;11.488;2023-03-31T19:37:43;3.28;;;1.00;;
4430;SDS011;2228;48.140;11.488;2023-03-31T19:40:10;4.40;;;0.90;;
4430;SDS011;2228;48.140;11.488;2023-03-31T19:42:38;2.90;;;0.90;;
4430;SDS011;2228;48.140;11.488;2023-03-31T19:45:06;3.00;;;0.80;;
4430;SDS011;2228;48.140;11.488;2023-03-31T19:47:35;3.55;;;0.80;;
4430;SDS011;2228;48.140;11.488;2023-03-31T21:27:09;4.40;;;0.90;;
4430;SDS011;2228;48.140;11.488;2023-03-31T21:29:36;4.53;;;1.05;;
4430;SDS011;2228;48.140;11.488;2023-03-31T21:32:03;5.80;;;1.50;;